createdAt,value
2019-01-05T00:03:48.810Z,86.29
2019-01-05T00:12:19.567Z,86.07
2019-01-05T00:15:06.884Z,86.09
2019-01-05T00:17:54.179Z,86.18
2019-01-05T00:20:41.497Z,86.32
2019-01-05T00:23:28.798Z,86.31
2019-01-05T00:26:16.121Z,86.37
2019-01-05T00:29:03.414Z,86.38
2019-01-05T00:31:50.758Z,86.45
2019-01-05T00:37:24.479Z,86.35
2019-01-05T00:40:16.945Z,86.34
2019-01-05T00:43:00.811Z,86.37
2019-01-05T00:48:27.483Z,86.26
2019-01-05T00:51:14.797Z,86.36
2019-01-05T00:54:02.104Z,86.39
2019-01-05T00:56:49.411Z,86.39
2019-01-05T00:59:36.707Z,86.49
2019-01-05T01:02:24.017Z,86.50
2019-01-05T01:05:11.309Z,86.46
2019-01-05T01:07:58.628Z,86.63
2019-01-05T01:10:45.934Z,86.66
2019-01-05T01:13:33.256Z,86.69
2019-01-05T01:16:20.586Z,86.78
2019-01-05T01:24:51.539Z,86.78
2019-01-05T01:30:14.030Z,86.58
2019-01-05T01:33:01.350Z,86.75
2019-01-05T01:35:48.645Z,86.81
2019-01-05T01:47:17.135Z,86.74
2019-01-05T01:50:04.438Z,86.72
2019-01-05T01:55:44.533Z,86.85
2019-01-05T01:58:31.847Z,87.00
2019-01-05T02:04:08.026Z,87.06
2019-01-05T02:06:55.328Z,86.98
2019-01-05T02:21:58.889Z,86.95
2019-01-05T02:25:25.004Z,86.95
2019-01-05T02:34:52.476Z,87.07
2019-01-05T02:59:48.764Z,86.99
2019-01-05T03:06:15.509Z,87.01
2019-01-05T03:09:41.633Z,86.98
2019-01-05T03:13:07.746Z,86.88
2019-01-05T03:19:33.345Z,86.80
2019-01-05T03:26:16.292Z,86.68
2019-01-05T03:29:42.406Z,86.70
2019-01-05T03:33:08.533Z,86.57
2019-01-05T03:36:34.636Z,86.62
2019-01-05T03:40:00.752Z,86.69
2019-01-05T03:43:09.063Z,86.68
2019-01-05T03:46:17.362Z,86.83
2019-01-05T03:55:57.437Z,86.80
2019-01-05T03:59:23.547Z,86.78
2019-01-05T04:02:31.920Z,86.71
2019-01-05T04:08:54.728Z,86.34
2019-01-05T04:12:03.035Z,86.26
2019-01-05T04:15:29.134Z,86.26
2019-01-05T04:18:37.452Z,86.40
2019-01-05T04:25:17.309Z,86.31
2019-01-05T04:28:43.415Z,86.27
2019-01-05T04:32:09.528Z,86.16
2019-01-05T04:35:35.639Z,86.05
2019-01-05T04:39:01.751Z,85.96
2019-01-05T04:45:58.455Z,85.88
2019-01-05T04:49:24.571Z,85.95
2019-01-05T04:52:33.205Z,86.01
2019-01-05T04:55:59.319Z,86.28
2019-01-05T05:02:26.389Z,86.12
2019-01-05T05:05:52.499Z,86.11
2019-01-05T05:21:20.872Z,86.20
2019-01-05T05:24:46.970Z,86.00
2019-01-05T05:28:13.087Z,86.05
2019-01-05T05:34:55.951Z,86.03
2019-01-05T05:38:04.326Z,85.75
2019-01-05T05:44:33.698Z,85.69
2019-01-05T05:51:01.132Z,85.81
2019-01-05T05:57:28.576Z,85.81
2019-01-05T06:00:54.717Z,85.76
2019-01-05T06:07:04.199Z,85.42
2019-01-05T06:10:12.828Z,85.59
2019-01-05T06:13:21.471Z,85.45
2019-01-05T06:16:30.093Z,85.47
2019-01-05T06:19:56.207Z,85.41
2019-01-05T06:23:22.320Z,85.49
2019-01-05T06:29:49.402Z,85.44
2019-01-05T06:39:48.564Z,85.42
2019-01-05T06:46:15.637Z,85.36
2019-01-05T06:49:24.001Z,85.23
2019-01-05T06:52:50.134Z,85.28
2019-01-05T06:59:15.565Z,84.98
2019-01-05T07:02:41.673Z,84.83
2019-01-05T07:05:49.980Z,84.66
2019-01-05T07:09:16.091Z,84.74
2019-01-05T07:15:43.459Z,84.83
2019-01-05T07:18:51.831Z,84.85
2019-01-05T07:22:00.450Z,84.71
2019-01-05T07:28:29.843Z,84.76
2019-01-05T07:31:38.475Z,84.63
2019-01-05T07:38:05.122Z,84.46
2019-01-05T07:41:31.239Z,84.68
2019-01-05T07:44:57.351Z,84.68
2019-01-05T07:48:05.972Z,84.69
2019-01-05T07:51:14.347Z,84.91
2019-01-05T07:54:40.483Z,84.59
2019-01-05T07:58:06.592Z,84.64
2019-01-05T08:01:14.964Z,84.63
2019-01-05T08:10:56.442Z,84.46
2019-01-05T08:14:22.564Z,84.33
2019-01-05T08:17:48.673Z,83.93
2019-01-05T08:20:57.300Z,84.04
2019-01-05T08:27:24.531Z,83.81
2019-01-05T08:34:11.073Z,83.69
2019-01-05T08:40:57.909Z,83.59
2019-01-05T08:44:24.021Z,83.64
2019-01-05T08:47:32.403Z,83.67
2019-01-05T08:50:41.026Z,83.72
2019-01-05T08:53:49.401Z,83.47
2019-01-05T09:03:17.247Z,83.52
2019-01-05T09:06:25.866Z,83.44
2019-01-05T09:13:12.980Z,83.18
2019-01-05T09:25:39.805Z,83.14
2019-01-05T09:29:05.917Z,82.91
2019-01-05T09:38:33.906Z,82.88
2019-01-05T09:42:00.027Z,82.80
2019-01-05T09:45:08.660Z,82.76
2019-01-05T09:51:35.861Z,82.45
2019-01-05T09:54:44.504Z,82.58
2019-01-05T09:58:10.626Z,82.42
2019-01-05T10:01:36.745Z,82.21
2019-01-05T10:05:02.857Z,82.30
2019-01-05T10:11:24.999Z,82.42
2019-01-05T10:14:33.311Z,82.60
2019-01-05T10:17:59.417Z,82.67
2019-01-05T10:21:08.053Z,82.42
2019-01-05T10:27:17.250Z,82.50
2019-01-05T10:30:43.367Z,82.49
2019-01-05T10:36:56.752Z,82.25
2019-01-05T10:40:22.876Z,82.23
2019-01-05T10:43:48.981Z,82.06
2019-01-05T10:46:57.362Z,81.90
2019-01-05T10:50:23.481Z,81.74
2019-01-05T10:56:48.824Z,81.80
2019-01-05T10:59:57.443Z,81.61
2019-01-05T11:03:23.561Z,81.67
2019-01-05T11:06:49.677Z,81.49
2019-01-05T11:13:16.497Z,81.69
2019-01-05T11:25:46.250Z,81.48
2019-01-05T11:29:12.379Z,81.67
2019-01-05T11:32:38.586Z,81.32
2019-01-05T11:36:04.701Z,81.01
2019-01-05T11:39:13.383Z,81.50
2019-01-05T11:42:39.501Z,81.59
2019-01-05T11:49:08.765Z,80.83
2019-01-05T11:52:34.875Z,81.09
2019-01-05T11:56:01.006Z,80.99
2019-01-05T11:59:09.319Z,80.91
2019-01-05T12:12:22.925Z,80.61
2019-01-05T12:15:49.035Z,80.35
2019-01-05T12:22:14.136Z,80.02
2019-01-05T12:28:41.090Z,80.14
2019-01-05T12:32:07.201Z,80.09
2019-01-05T12:35:15.510Z,80.13
2019-01-05T12:38:41.614Z,79.97
2019-01-05T12:48:27.452Z,79.07
2019-01-05T12:51:36.096Z,79.37
2019-01-05T12:54:44.725Z,79.31
2019-01-05T12:58:10.837Z,79.37
2019-01-05T13:01:36.980Z,79.37
2019-01-05T13:07:59.190Z,78.85
2019-01-05T13:11:07.568Z,78.71
2019-01-05T13:20:48.393Z,78.78
2019-01-05T13:24:14.507Z,78.48
2019-01-05T13:27:23.140Z,78.71
2019-01-05T13:33:49.824Z,78.49
2019-01-05T13:37:15.936Z,78.50
2019-01-05T13:40:42.056Z,78.60
2019-01-05T13:44:08.174Z,78.67
2019-01-05T13:47:34.292Z,78.45
2019-01-05T13:56:37.464Z,78.11
2019-01-05T13:59:24.779Z,78.07
2019-01-05T14:02:12.080Z,78.26
2019-01-05T14:07:34.444Z,78.12
2019-01-05T14:10:14.228Z,78.28
2019-01-05T14:15:50.416Z,78.16
2019-01-05T14:18:37.733Z,78.15
2019-01-05T14:21:25.035Z,78.08
2019-01-05T14:29:26.756Z,77.61
2019-01-05T14:32:14.072Z,77.63
2019-01-05T14:35:01.384Z,77.63
2019-01-05T14:37:48.692Z,77.45
2019-01-05T14:40:36.008Z,77.43
2019-01-05T14:43:23.318Z,77.27
2019-01-05T14:46:10.632Z,77.43
2019-01-05T14:48:57.941Z,82.66
2019-01-05T14:51:45.256Z,89.07
2019-01-05T14:54:32.595Z,86.34
2019-01-05T14:57:19.896Z,81.01
2019-01-05T15:00:07.220Z,78.04
2019-01-05T15:02:54.523Z,77.41
2019-01-05T15:05:41.845Z,77.14
2019-01-05T15:08:29.148Z,76.79
2019-01-05T15:19:01.950Z,76.44
2019-01-05T15:24:24.292Z,76.47
2019-01-05T15:27:11.620Z,76.62
2019-01-05T15:29:58.982Z,76.63
2019-01-05T15:32:46.242Z,76.62
2019-01-05T15:35:33.555Z,76.60
2019-01-05T15:38:20.862Z,76.51
2019-01-05T15:43:43.228Z,76.59
2019-01-05T15:46:30.547Z,76.64
2019-01-05T15:49:17.854Z,76.68
2019-01-05T15:52:05.176Z,76.67
2019-01-05T15:57:41.369Z,76.82
2019-01-05T16:06:17.628Z,76.86
2019-01-05T16:09:04.929Z,76.94
2019-01-05T16:11:52.247Z,76.66
2019-01-05T16:14:39.543Z,76.88
2019-01-05T16:22:41.475Z,77.05
2019-01-05T16:28:17.670Z,77.06
2019-01-05T16:31:04.967Z,76.99
2019-01-05T16:33:52.288Z,76.79
2019-01-05T16:36:39.588Z,76.84
2019-01-05T16:39:26.912Z,76.99
2019-01-05T16:42:14.228Z,77.05
2019-01-05T16:45:01.528Z,76.93
2019-01-05T16:47:48.846Z,76.84
2019-01-05T16:50:36.153Z,76.76
2019-01-05T16:55:58.817Z,76.83
2019-01-05T16:58:46.137Z,76.88
2019-01-05T17:01:33.435Z,76.82
2019-01-05T17:04:20.760Z,76.70
2019-01-05T17:07:08.060Z,76.62
2019-01-05T17:12:34.592Z,76.55
2019-01-05T17:15:21.915Z,76.59
2019-01-05T17:18:09.234Z,76.63
2019-01-05T17:20:56.539Z,76.53
2019-01-05T17:23:43.870Z,76.71
2019-01-05T17:34:34.655Z,76.82
2019-01-05T17:37:21.969Z,76.82
2019-01-05T17:40:09.276Z,76.81
2019-01-05T17:45:45.473Z,76.89
2019-01-05T17:51:21.658Z,76.90
2019-01-05T17:54:08.970Z,76.91
2019-01-05T17:56:56.286Z,77.08
2019-01-05T17:59:43.598Z,77.14
2019-01-05T18:02:30.929Z,77.23
2019-01-05T18:05:18.222Z,77.29
2019-01-05T18:08:05.604Z,77.29
2019-01-05T18:13:28.212Z,77.80
2019-01-05T18:16:15.508Z,77.94
2019-01-05T18:21:51.727Z,77.93
2019-01-05T18:24:39.007Z,77.94
2019-01-05T18:27:26.332Z,78.08
2019-01-05T18:32:48.958Z,78.07
2019-01-05T18:38:15.593Z,78.16
2019-01-05T18:43:38.209Z,78.27
2019-01-05T18:46:25.541Z,78.31
2019-01-05T18:49:12.852Z,78.28
2019-01-05T18:54:35.591Z,78.24
2019-01-05T18:57:22.879Z,78.24
2019-01-05T19:00:10.214Z,78.24
2019-01-05T19:02:57.534Z,78.19
2019-01-05T19:05:44.840Z,78.17
2019-01-05T19:08:32.116Z,78.12
2019-01-05T19:11:19.436Z,78.14
2019-01-05T19:14:06.726Z,78.10
2019-01-05T19:16:54.049Z,78.13
2019-01-05T19:22:30.239Z,78.29
2019-01-05T19:25:17.538Z,78.29
2019-01-05T19:28:04.858Z,78.39
2019-01-05T19:30:52.154Z,78.38
2019-01-05T19:36:14.956Z,78.41
2019-01-05T19:39:02.247Z,78.42
2019-01-05T19:41:49.546Z,78.44
2019-01-05T19:47:16.233Z,78.46
2019-01-05T19:50:03.563Z,78.49
2019-01-05T19:52:50.858Z,78.45
2019-01-05T19:55:38.175Z,78.50
2019-01-05T19:58:25.484Z,78.52
2019-01-05T20:01:12.780Z,78.54
2019-01-05T20:04:00.104Z,78.51
2019-01-05T20:06:47.493Z,78.54
2019-01-05T20:09:34.802Z,78.54
2019-01-05T20:12:22.098Z,78.50
2019-01-05T20:15:09.411Z,78.54
2019-01-05T20:17:56.712Z,78.55
2019-01-05T20:20:44.033Z,78.58
2019-01-05T20:23:31.326Z,78.55
2019-01-05T20:28:57.749Z,78.54
2019-01-05T20:31:45.048Z,78.57
2019-01-05T20:37:21.235Z,78.48
2019-01-05T20:40:08.538Z,78.53
2019-01-05T20:42:55.842Z,78.47
2019-01-05T20:45:43.165Z,78.53
2019-01-05T20:48:30.473Z,78.55
2019-01-05T20:51:17.792Z,78.77
2019-01-05T20:54:05.099Z,78.73
2019-01-05T20:56:52.412Z,78.92
2019-01-05T20:59:39.717Z,79.01
2019-01-05T21:02:27.026Z,79.04
2019-01-05T21:08:03.207Z,78.98
2019-01-05T21:10:50.531Z,79.05
2019-01-05T21:16:26.721Z,79.08
2019-01-05T21:24:38.088Z,78.99
2019-01-05T21:27:25.402Z,79.05
2019-01-05T21:30:12.712Z,79.04
2019-01-05T21:33:00.031Z,78.98
2019-01-05T21:38:36.212Z,78.94
2019-01-05T21:41:23.516Z,78.93
2019-01-05T21:46:50.086Z,78.95
2019-01-05T21:49:37.392Z,78.91
2019-01-05T21:52:24.712Z,78.92
2019-01-05T21:55:12.021Z,78.87
2019-01-05T21:57:59.339Z,78.79
2019-01-05T22:00:46.644Z,78.86
2019-01-05T22:03:33.962Z,78.76
2019-01-05T22:06:21.270Z,78.83
2019-01-05T22:09:08.587Z,78.80
2019-01-05T22:11:55.931Z,78.80
2019-01-05T22:14:43.231Z,78.85
2019-01-05T22:20:09.848Z,78.80
2019-01-05T22:22:57.159Z,78.79
2019-01-05T22:25:44.470Z,78.83
2019-01-05T22:28:31.794Z,78.85
2019-01-05T22:31:19.178Z,78.84
2019-01-05T22:34:06.517Z,78.81
2019-01-05T22:36:53.816Z,78.78
2019-01-05T22:39:41.135Z,78.78
2019-01-05T22:45:17.332Z,78.85
2019-01-05T22:48:04.677Z,78.82
2019-01-05T22:50:52.001Z,79.00
2019-01-05T22:53:39.324Z,79.04
2019-01-05T22:56:26.638Z,79.05
2019-01-05T22:59:13.954Z,78.93
2019-01-05T23:02:01.262Z,79.01
2019-01-05T23:04:48.574Z,78.97
2019-01-05T23:07:35.884Z,79.07
2019-01-05T23:10:44.207Z,79.06
2019-01-05T23:13:31.517Z,79.17
2019-01-05T23:16:18.833Z,79.08
2019-01-05T23:24:20.828Z,79.01
2019-01-05T23:27:08.135Z,79.07
2019-01-05T23:29:55.456Z,79.10
2019-01-05T23:32:42.760Z,79.09
2019-01-05T23:35:30.081Z,78.94
2019-01-05T23:38:17.383Z,78.95
2019-01-05T23:41:04.704Z,79.00
2019-01-05T23:43:52.003Z,79.16
2019-01-05T23:46:39.325Z,79.08
2019-01-05T23:49:26.632Z,79.18
2019-01-05T23:52:13.958Z,79.20
2019-01-05T23:55:01.269Z,79.21
2019-01-05T23:57:48.573Z,79.20
